sensor_id;sensor_type;location;lat;lon;timestamp;pressure;altitude;pressure_sealevel;temperature;humidity
65557;BME280;52200;53.490;14.376;2023-10-13T00:00:56;101292.78;;;5.58;92.81
65557;BME280;52200;53.490;14.376;2023-10-13T00:03:23;101289.44;;;5.60;92.94
65557;BME280;52200;53.490;14.376;2023-10-13T00:05:50;101294.50;;;5.68;93.29
65557;BME280;52200;53.490;14.376;2023-10-13T00:08:18;101281.06;;;5.66;94.02
65557;BME280;52200;53.490;14.376;2023-10-13T00:10:45;101281.13;;;5.97;94.13
65557;BME280;52200;53.490;14.376;2023-10-13T00:13:12;101288.66;;;5.85;94.51
65557;BME280;52200;53.490;14.376;2023-10-13T00:15:41;101291.19;;;5.91;95.57
65557;BME280;52200;53.490;14.376;2023-10-13T00:18:12;101292.09;;;6.13;94.67
65557;BME280;52200;53.490;14.376;2023-10-13T00:20:43;101276.13;;;6.16;94.83
65557;BME280;52200;53.490;14.376;2023-10-13T00:23:15;101286.97;;;5.77;97.97
65557;BME280;52200;53.490;14.376;2023-10-13T00:25:48;101266.00;;;6.00;100.00
65557;BME280;52200;53.490;14.376;2023-10-13T00:28:26;101270.25;;;6.15;99.75
65557;BME280;52200;53.490;14.376;2023-10-13T00:30:53;101266.88;;;6.39;99.28
65557;BME280;52200;53.490;14.376;2023-10-13T00:33:25;101266.00;;;6.65;98.26
65557;BME280;52200;53.490;14.376;2023-10-13T00:35:51;101267.66;;;6.85;97.11
65557;BME280;52200;53.490;14.376;2023-10-13T00:38:23;101275.19;;;7.02;96.81
65557;BME280;52200;53.490;14.376;2023-10-13T00:40:49;101273.47;;;7.04;96.22
65557;BME280;52200;53.490;14.376;2023-10-13T00:43:18;101275.94;;;7.21;96.14
65557;BME280;52200;53.490;14.376;2023-10-13T00:48:33;101272.69;;;6.91;97.67
65557;BME280;52200;53.490;14.376;2023-10-13T00:51:01;101265.91;;;7.12;98.56
65557;BME280;52200;53.490;14.376;2023-10-13T00:53:35;101259.16;;;7.10;97.88
65557;BME280;52200;53.490;14.376;2023-10-13T00:56:08;101259.13;;;7.14;98.47
65557;BME280;52200;53.490;14.376;2023-10-13T00:58:47;101260.72;;;7.38;97.35
65557;BME280;52200;53.490;14.376;2023-10-13T01:01:16;101254.03;;;7.29;97.08
65557;BME280;52200;53.490;14.376;2023-10-13T01:03:50;101260.88;;;7.05;99.49
65557;BME280;52200;53.490;14.376;2023-10-13T01:06:27;101259.91;;;7.31;98.99
65557;BME280;52200;53.490;14.376;2023-10-13T01:11:23;101257.41;;;7.28;100.00
65557;BME280;52200;53.490;14.376;2023-10-13T01:13:49;101254.00;;;7.32;100.00
65557;BME280;52200;53.490;14.376;2023-10-13T01:16:21;101251.47;;;7.28;100.00
65557;BME280;52200;53.490;14.376;2023-10-13T01:18:49;101266.63;;;7.32;100.00
65557;BME280;52200;53.490;14.376;2023-10-13T01:21:16;101262.41;;;7.40;100.00
65557;BME280;52200;53.490;14.376;2023-10-13T01:23:45;101253.13;;;7.35;100.00
65557;BME280;52200;53.490;14.376;2023-10-13T01:26:13;101256.50;;;7.41;100.00
65557;BME280;52200;53.490;14.376;2023-10-13T01:28:43;101258.94;;;7.55;100.00
65557;BME280;52200;53.490;14.376;2023-10-13T01:31:12;101281.47;;;7.93;100.00
65557;BME280;52200;53.490;14.376;2023-10-13T01:33:53;101264.63;;;7.90;99.42
65557;BME280;52200;53.490;14.376;2023-10-13T01:36:28;101262.16;;;7.84;99.83
65557;BME280;52200;53.490;14.376;2023-10-13T01:39:00;101267.97;;;7.98;100.00
65557;BME280;52200;53.490;14.376;2023-10-13T01:41:26;101253.53;;;8.06;99.40
65557;BME280;52200;53.490;14.376;2023-10-13T01:43:53;101261.94;;;8.12;98.89
65557;BME280;52200;53.490;14.376;2023-10-13T01:46:22;101254.41;;;8.07;99.55
65557;BME280;52200;53.490;14.376;2023-10-13T01:48:48;101259.28;;;8.27;99.83
65557;BME280;52200;53.490;14.376;2023-10-13T01:51:13;101262.53;;;8.43;99.51
65557;BME280;52200;53.490;14.376;2023-10-13T01:53:40;101265.78;;;8.59;98.38
65557;BME280;52200;53.490;14.376;2023-10-13T01:56:07;101265.81;;;8.54;98.38
65557;BME280;52200;53.490;14.376;2023-10-13T01:58:39;101263.47;;;8.31;99.08
65557;BME280;52200;53.490;14.376;2023-10-13T02:01:09;101267.53;;;8.52;99.48
65557;BME280;52200;53.490;14.376;2023-10-13T02:03:36;101267.41;;;8.66;98.14
65557;BME280;52200;53.490;14.376;2023-10-13T02:06:07;101259.81;;;8.66;98.27
65557;BME280;52200;53.490;14.376;2023-10-13T02:08:35;101281.72;;;8.67;98.25
65557;BME280;52200;53.490;14.376;2023-10-13T02:11:05;101282.63;;;8.63;98.60
65557;BME280;52200;53.490;14.376;2023-10-13T02:13:32;101278.28;;;8.78;98.97
65557;BME280;52200;53.490;14.376;2023-10-13T02:15:58;101261.31;;;8.83;97.98
65557;BME280;52200;53.490;14.376;2023-10-13T02:18:28;101250.00;;;8.29;100.00
65557;BME280;52200;53.490;14.376;2023-10-13T02:21:06;101246.53;;;8.39;100.00
65557;BME280;52200;53.490;14.376;2023-10-13T02:23:41;101251.25;;;8.77;99.67
65557;BME280;52200;53.490;14.376;2023-10-13T02:26:29;101260.38;;;8.95;99.07
65557;BME280;52200;53.490;14.376;2023-10-13T02:28:59;101256.06;;;8.98;98.79
65557;BME280;52200;53.490;14.376;2023-10-13T02:31:28;101250.56;;;8.64;100.00
65557;BME280;52200;53.490;14.376;2023-10-13T02:33:53;101236.78;;;8.86;99.45
65557;BME280;52200;53.490;14.376;2023-10-13T02:36:19;101251.00;;;8.98;99.64
65557;BME280;52200;53.490;14.376;2023-10-13T02:39:04;101221.56;;;8.88;99.79
65557;BME280;52200;53.490;14.376;2023-10-13T02:41:34;101234.03;;;9.05;100.00
65557;BME280;52200;53.490;14.376;2023-10-13T02:44:04;101230.47;;;9.20;98.43
65557;BME280;52200;53.490;14.376;2023-10-13T02:46:35;101235.78;;;8.98;99.69
65557;BME280;52200;53.490;14.376;2023-10-13T02:49:05;101243.09;;;9.23;99.13
65557;BME280;52200;53.490;14.376;2023-10-13T02:51:38;101231.16;;;9.34;99.17
65557;BME280;52200;53.490;14.376;2023-10-13T02:54:07;101225.13;;;9.40;98.09
65557;BME280;52200;53.490;14.376;2023-10-13T02:56:37;101214.97;;;9.43;98.21
65557;BME280;52200;53.490;14.376;2023-10-13T02:59:03;101197.66;;;9.09;99.56
65557;BME280;52200;53.490;14.376;2023-10-13T03:01:32;101196.97;;;8.96;100.00
65557;BME280;52200;53.490;14.376;2023-10-13T03:04:00;101194.63;;;8.81;100.00
65557;BME280;52200;53.490;14.376;2023-10-13T03:06:26;101207.22;;;8.87;100.00
65557;BME280;52200;53.490;14.376;2023-10-13T03:09:17;101194.44;;;8.98;100.00
65557;BME280;52200;53.490;14.376;2023-10-13T03:11:48;101195.31;;;8.95;100.00
65557;BME280;52200;53.490;14.376;2023-10-13T03:14:18;101186.84;;;8.96;100.00
65557;BME280;52200;53.490;14.376;2023-10-13T03:17:13;101186.53;;;9.21;100.00
65557;BME280;52200;53.490;14.376;2023-10-13T03:19:47;101184.59;;;9.39;100.00
65557;BME280;52200;53.490;14.376;2023-10-13T03:22:15;101183.94;;;9.26;100.00
65557;BME280;52200;53.490;14.376;2023-10-13T03:24:42;101174.78;;;9.14;100.00
65557;BME280;52200;53.490;14.376;2023-10-13T03:27:19;101188.41;;;9.07;100.00
65557;BME280;52200;53.490;14.376;2023-10-13T03:29:48;101178.09;;;9.19;100.00
65557;BME280;52200;53.490;14.376;2023-10-13T03:32:19;101174.72;;;9.20;100.00
65557;BME280;52200;53.490;14.376;2023-10-13T03:34:46;101174.88;;;9.08;100.00
65557;BME280;52200;53.490;14.376;2023-10-13T03:37:19;101173.34;;;8.94;100.00
65557;BME280;52200;53.490;14.376;2023-10-13T03:40:10;101169.88;;;9.01;100.00
65557;BME280;52200;53.490;14.376;2023-10-13T03:42:48;101160.44;;;9.13;100.00
65557;BME280;52200;53.490;14.376;2023-10-13T03:45:44;101168.09;;;9.10;100.00
65557;BME280;52200;53.490;14.376;2023-10-13T03:48:15;101162.94;;;9.16;100.00
65557;BME280;52200;53.490;14.376;2023-10-13T03:50:49;101146.75;;;9.25;100.00
65557;BME280;52200;53.490;14.376;2023-10-13T03:53:41;101145.84;;;9.29;100.00
65557;BME280;52200;53.490;14.376;2023-10-13T03:56:21;101134.31;;;9.08;100.00
65557;BME280;52200;53.490;14.376;2023-10-13T03:59:06;101132.69;;;9.02;100.00
65557;BME280;52200;53.490;14.376;2023-10-13T04:01:36;101135.78;;;9.24;100.00
65557;BME280;52200;53.490;14.376;2023-10-13T04:04:17;101131.56;;;9.23;100.00
65557;BME280;52200;53.490;14.376;2023-10-13T04:07:15;101133.75;;;9.48;100.00
65557;BME280;52200;53.490;14.376;2023-10-13T04:10:01;101126.22;;;9.43;100.00
65557;BME280;52200;53.490;14.376;2023-10-13T04:12:55;101120.47;;;9.32;100.00
65557;BME280;52200;53.490;14.376;2023-10-13T04:15:43;101116.34;;;9.23;100.00
65557;BME280;52200;53.490;14.376;2023-10-13T04:18:31;101108.84;;;9.17;100.00
65557;BME280;52200;53.490;14.376;2023-10-13T04:21:12;101103.72;;;9.20;100.00
65557;BME280;52200;53.490;14.376;2023-10-13T04:23:56;101100.19;;;9.30;100.00
65557;BME280;52200;53.490;14.376;2023-10-13T04:26:40;101097.63;;;9.33;100.00
65557;BME280;52200;53.490;14.376;2023-10-13T04:29:25;101091.00;;;9.25;100.00
65557;BME280;52200;53.490;14.376;2023-10-13T04:32:15;101092.47;;;9.36;100.00
65557;BME280;52200;53.490;14.376;2023-10-13T04:34:41;101079.78;;;9.40;100.00
65557;BME280;52200;53.490;14.376;2023-10-13T04:37:13;101075.69;;;9.31;100.00
65557;BME280;52200;53.490;14.376;2023-10-13T04:39:55;101083.03;;;9.46;100.00
65557;BME280;52200;53.490;14.376;2023-10-13T04:42:34;101078.72;;;9.51;100.00
65557;BME280;52200;53.490;14.376;2023-10-13T04:45:18;101073.69;;;9.50;100.00
65557;BME280;52200;53.490;14.376;2023-10-13T04:48:10;101067.75;;;9.51;100.00
65557;BME280;52200;53.490;14.376;2023-10-13T04:50:48;101057.56;;;9.54;100.00
65557;BME280;52200;53.490;14.376;2023-10-13T04:53:24;101057.34;;;9.66;100.00
65557;BME280;52200;53.490;14.376;2023-10-13T04:56:00;101062.41;;;9.68;100.00
65557;BME280;52200;53.490;14.376;2023-10-13T04:58:29;101065.06;;;9.59;100.00
65557;BME280;52200;53.490;14.376;2023-10-13T05:01:15;101061.53;;;9.69;100.00
65557;BME280;52200;53.490;14.376;2023-10-13T05:03:49;101057.34;;;9.66;100.00
65557;BME280;52200;53.490;14.376;2023-10-13T05:06:28;101045.47;;;9.68;100.00
65557;BME280;52200;53.490;14.376;2023-10-13T05:09:09;101056.47;;;9.67;100.00
65557;BME280;52200;53.490;14.376;2023-10-13T05:11:53;101052.06;;;9.77;100.00
65557;BME280;52200;53.490;14.376;2023-10-13T05:14:38;101047.81;;;9.79;100.00
65557;BME280;52200;53.490;14.376;2023-10-13T05:17:22;101041.81;;;9.85;100.00
65557;BME280;52200;53.490;14.376;2023-10-13T05:20:07;101033.38;;;9.83;100.00
65557;BME280;52200;53.490;14.376;2023-10-13T05:22:51;101037.53;;;9.86;100.00
65557;BME280;52200;53.490;14.376;2023-10-13T05:25:36;101034.84;;;9.93;100.00
65557;BME280;52200;53.490;14.376;2023-10-13T05:28:20;101031.38;;;9.99;100.00
65557;BME280;52200;53.490;14.376;2023-10-13T05:31:04;101033.72;;;10.10;100.00
65557;BME280;52200;53.490;14.376;2023-10-13T05:33:48;101030.28;;;10.11;100.00
65557;BME280;52200;53.490;14.376;2023-10-13T05:36:33;101022.41;;;10.23;100.00
65557;BME280;52200;53.490;14.376;2023-10-13T05:39:17;101017.66;;;10.08;100.00
65557;BME280;52200;53.490;14.376;2023-10-13T05:42:01;101026.81;;;10.16;100.00
65557;BME280;52200;53.490;14.376;2023-10-13T05:44:45;101034.25;;;10.24;100.00
65557;BME280;52200;53.490;14.376;2023-10-13T05:47:29;101031.44;;;10.38;100.00
65557;BME280;52200;53.490;14.376;2023-10-13T05:50:06;101022.06;;;10.42;100.00
65557;BME280;52200;53.490;14.376;2023-10-13T05:52:45;101013.59;;;10.43;100.00
65557;BME280;52200;53.490;14.376;2023-10-13T05:55:27;101017.00;;;10.42;100.00
65557;BME280;52200;53.490;14.376;2023-10-13T05:58:11;101005.97;;;10.43;100.00
65557;BME280;52200;53.490;14.376;2023-10-13T06:00:56;101007.72;;;10.39;100.00
65557;BME280;52200;53.490;14.376;2023-10-13T06:03:40;101006.78;;;10.45;100.00
65557;BME280;52200;53.490;14.376;2023-10-13T06:06:24;101010.91;;;10.49;100.00
65557;BME280;52200;53.490;14.376;2023-10-13T06:09:08;100999.84;;;10.53;100.00
65557;BME280;52200;53.490;14.376;2023-10-13T06:11:52;100999.63;;;10.62;100.00
65557;BME280;52200;53.490;14.376;2023-10-13T06:14:36;100992.72;;;10.69;100.00
65557;BME280;52200;53.490;14.376;2023-10-13T06:17:20;100981.50;;;10.78;100.00
65557;BME280;52200;53.490;14.376;2023-10-13T06:20:05;100973.78;;;10.81;100.00
65557;BME280;52200;53.490;14.376;2023-10-13T06:22:50;100953.25;;;10.90;100.00
65557;BME280;52200;53.490;14.376;2023-10-13T06:25:34;100968.94;;;11.06;100.00
65557;BME280;52200;53.490;14.376;2023-10-13T06:28:18;100963.66;;;11.14;100.00
65557;BME280;52200;53.490;14.376;2023-10-13T06:31:04;100952.31;;;11.27;100.00
65557;BME280;52200;53.490;14.376;2023-10-13T06:33:33;100947.03;;;11.35;100.00
65557;BME280;52200;53.490;14.376;2023-10-13T06:36:02;100964.50;;;11.48;100.00
65557;BME280;52200;53.490;14.376;2023-10-13T06:38:29;100961.09;;;11.49;100.00
65557;BME280;52200;53.490;14.376;2023-10-13T06:41:05;100956.66;;;11.55;100.00
65557;BME280;52200;53.490;14.376;2023-10-13T06:43:39;100958.91;;;11.66;100.00
65557;BME280;52200;53.490;14.376;2023-10-13T06:46:09;100956.53;;;11.60;100.00
65557;BME280;52200;53.490;14.376;2023-10-13T06:48:40;100944.03;;;11.52;100.00
65557;BME280;52200;53.490;14.376;2023-10-13T06:51:07;100941.31;;;11.58;100.00
65557;BME280;52200;53.490;14.376;2023-10-13T06:53:48;100936.13;;;11.61;100.00
65557;BME280;52200;53.490;14.376;2023-10-13T06:56:14;100928.38;;;11.66;100.00
65557;BME280;52200;53.490;14.376;2023-10-13T06:58:53;100949.22;;;11.79;100.00
65557;BME280;52200;53.490;14.376;2023-10-13T07:01:25;100950.63;;;11.89;100.00
65557;BME280;52200;53.490;14.376;2023-10-13T07:03:51;100949.47;;;12.01;100.00
65557;BME280;52200;53.490;14.376;2023-10-13T07:06:20;100940.53;;;11.86;100.00
65557;BME280;52200;53.490;14.376;2023-10-13T07:08:49;100942.63;;;12.03;100.00
65557;BME280;52200;53.490;14.376;2023-10-13T07:11:19;100928.84;;;12.11;100.00
65557;BME280;52200;53.490;14.376;2023-10-13T07:13:59;100936.16;;;12.21;100.00
65557;BME280;52200;53.490;14.376;2023-10-13T07:16:26;100933.06;;;12.38;100.00
65557;BME280;52200;53.490;14.376;2023-10-13T07:19:00;100924.75;;;12.33;100.00
65557;BME280;52200;53.490;14.376;2023-10-13T07:21:31;100927.78;;;12.45;100.00
65557;BME280;52200;53.490;14.376;2023-10-13T07:23:56;100919.19;;;12.49;100.00
65557;BME280;52200;53.490;14.376;2023-10-13T07:26:36;100912.66;;;12.40;100.00
65557;BME280;52200;53.490;14.376;2023-10-13T07:29:13;100910.88;;;12.69;100.00
65557;BME280;52200;53.490;14.376;2023-10-13T07:31:39;100915.59;;;12.81;100.00
65557;BME280;52200;53.490;14.376;2023-10-13T07:34:07;100911.84;;;12.92;100.00
65557;BME280;52200;53.490;14.376;2023-10-13T07:36:42;100902.31;;;12.97;100.00
65557;BME280;52200;53.490;14.376;2023-10-13T07:39:08;100902.56;;;12.89;100.00
65557;BME280;52200;53.490;14.376;2023-10-13T07:41:51;100905.56;;;13.02;100.00
65557;BME280;52200;53.490;14.376;2023-10-13T07:44:21;100901.63;;;12.92;100.00
65557;BME280;52200;53.490;14.376;2023-10-13T07:46:51;100893.56;;;13.04;100.00
65557;BME280;52200;53.490;14.376;2023-10-13T07:49:27;100887.06;;;13.20;100.00
65557;BME280;52200;53.490;14.376;2023-10-13T07:52:00;100888.69;;;13.23;100.00
65557;BME280;52200;53.490;14.376;2023-10-13T07:55:01;100889.88;;;13.38;100.00
65557;BME280;52200;53.490;14.376;2023-10-13T07:57:37;100888.06;;;13.42;100.00
65557;BME280;52200;53.490;14.376;2023-10-13T08:00:18;100891.59;;;13.36;100.00
65557;BME280;52200;53.490;14.376;2023-10-13T08:03:02;100896.22;;;13.51;100.00
65557;BME280;52200;53.490;14.376;2023-10-13T08:05:40;100884.31;;;13.50;100.00
65557;BME280;52200;53.490;14.376;2023-10-13T08:08:27;100878.00;;;13.61;100.00
65557;BME280;52200;53.490;14.376;2023-10-13T08:11:01;100880.09;;;13.73;100.00
65557;BME280;52200;53.490;14.376;2023-10-13T08:13:35;100874.50;;;13.85;100.00
65557;BME280;52200;53.490;14.376;2023-10-13T08:16:02;100860.28;;;13.80;100.00
65557;BME280;52200;53.490;14.376;2023-10-13T08:18:46;100858.78;;;13.96;100.00
65557;BME280;52200;53.490;14.376;2023-10-13T08:21:14;100865.00;;;14.11;100.00
65557;BME280;52200;53.490;14.376;2023-10-13T08:23:51;100872.84;;;14.07;100.00
65557;BME280;52200;53.490;14.376;2023-10-13T08:26:20;100867.03;;;14.03;100.00
65557;BME280;52200;53.490;14.376;2023-10-13T08:29:01;100864.78;;;13.95;100.00
65557;BME280;52200;53.490;14.376;2023-10-13T08:31:46;100863.25;;;14.13;100.00
65557;BME280;52200;53.490;14.376;2023-10-13T08:34:36;100858.78;;;14.18;100.00
65557;BME280;52200;53.490;14.376;2023-10-13T08:37:08;100859.53;;;14.21;100.00
65557;BME280;52200;53.490;14.376;2023-10-13T08:39:55;100851.81;;;14.65;100.00
65557;BME280;52200;53.490;14.376;2023-10-13T08:42:44;100852.47;;;14.70;100.00
65557;BME280;52200;53.490;14.376;2023-10-13T08:45:14;100854.69;;;14.78;100.00
65557;BME280;52200;53.490;14.376;2023-10-13T08:48:07;100837.75;;;14.75;100.00
65557;BME280;52200;53.490;14.376;2023-10-13T08:53:39;100835.38;;;14.91;100.00
65557;BME280;52200;53.490;14.376;2023-10-13T08:56:23;100832.63;;;15.15;100.00
65557;BME280;52200;53.490;14.376;2023-10-13T08:59:07;100830.63;;;14.82;100.00
65557;BME280;52200;53.490;14.376;2023-10-13T09:01:36;100830.53;;;14.85;100.00
65557;BME280;52200;53.490;14.376;2023-10-13T09:04:18;100824.16;;;14.94;100.00
65557;BME280;52200;53.490;14.376;2023-10-13T09:06:45;100824.19;;;15.13;100.00
65557;BME280;52200;53.490;14.376;2023-10-13T09:09:29;100820.47;;;15.01;100.00
65557;BME280;52200;53.490;14.376;2023-10-13T09:12:14;100812.84;;;15.19;100.00
65557;BME280;52200;53.490;14.376;2023-10-13T09:14:43;100812.03;;;15.37;100.00
65557;BME280;52200;53.490;14.376;2023-10-13T09:17:25;100805.66;;;15.46;100.00
65557;BME280;52200;53.490;14.376;2023-10-13T09:20:04;100799.50;;;15.68;100.00
65557;BME280;52200;53.490;14.376;2023-10-13T09:22:55;100790.56;;;15.76;100.00
65557;BME280;52200;53.490;14.376;2023-10-13T09:25:30;100787.19;;;15.76;100.00
65557;BME280;52200;53.490;14.376;2023-10-13T09:28:04;100789.34;;;15.66;100.00
65557;BME280;52200;53.490;14.376;2023-10-13T09:30:50;100781.84;;;15.80;100.00
65557;BME280;52200;53.490;14.376;2023-10-13T09:33:29;100773.31;;;15.99;100.00
65557;BME280;52200;53.490;14.376;2023-10-13T09:36:05;100782.50;;;16.21;99.44
65557;BME280;52200;53.490;14.376;2023-10-13T09:38:38;100767.41;;;16.15;99.99
65557;BME280;52200;53.490;14.376;2023-10-13T09:41:08;100771.00;;;16.46;99.14
65557;BME280;52200;53.490;14.376;2023-10-13T09:43:52;100759.56;;;16.35;99.85
65557;BME280;52200;53.490;14.376;2023-10-13T09:46:26;100756.09;;;16.36;100.00
65557;BME280;52200;53.490;14.376;2023-10-13T09:48:58;100749.94;;;16.23;99.75
65557;BME280;52200;53.490;14.376;2023-10-13T09:51:31;100743.59;;;16.30;100.00
65557;BME280;52200;53.490;14.376;2023-10-13T09:54:08;100737.72;;;15.93;100.00
65557;BME280;52200;53.490;14.376;2023-10-13T09:56:55;100727.19;;;15.99;100.00
65557;BME280;52200;53.490;14.376;2023-10-13T09:59:26;100729.72;;;16.17;100.00
65557;BME280;52200;53.490;14.376;2023-10-13T10:02:01;100726.47;;;16.31;100.00
65557;BME280;52200;53.490;14.376;2023-10-13T10:04:34;100719.31;;;16.20;100.00
65557;BME280;52200;53.490;14.376;2023-10-13T10:07:10;100719.03;;;16.42;100.00
65557;BME280;52200;53.490;14.376;2023-10-13T10:09:36;100713.53;;;16.50;100.00
65557;BME280;52200;53.490;14.376;2023-10-13T10:17:46;100689.97;;;16.75;100.00
65557;BME280;52200;53.490;14.376;2023-10-13T10:20:12;100687.50;;;16.73;100.00
65557;BME280;52200;53.490;14.376;2023-10-13T10:22:41;100694.63;;;16.68;100.00
65557;BME280;52200;53.490;14.376;2023-10-13T10:25:14;100690.47;;;16.66;100.00
65557;BME280;52200;53.490;14.376;2023-10-13T10:28:03;100679.34;;;16.49;100.00
65557;BME280;52200;53.490;14.376;2023-10-13T10:30:35;100671.72;;;16.32;100.00
65557;BME280;52200;53.490;14.376;2023-10-13T10:33:04;100669.41;;;16.43;100.00
65557;BME280;52200;53.490;14.376;2023-10-13T10:36:01;100661.97;;;16.05;100.00
65557;BME280;52200;53.490;14.376;2023-10-13T10:38:26;100652.56;;;16.05;100.00
65557;BME280;52200;53.490;14.376;2023-10-13T10:40:55;100639.56;;;16.08;100.00
65557;BME280;52200;53.490;14.376;2023-10-13T10:43:42;100635.47;;;16.22;100.00
65557;BME280;52200;53.490;14.376;2023-10-13T10:46:28;100622.13;;;16.49;100.00
65557;BME280;52200;53.490;14.376;2023-10-13T10:48:57;100630.63;;;16.65;100.00
65557;BME280;52200;53.490;14.376;2023-10-13T10:51:26;100629.31;;;16.58;100.00
65557;BME280;52200;53.490;14.376;2023-10-13T10:53:57;100627.41;;;16.46;100.00
65557;BME280;52200;53.490;14.376;2023-10-13T10:56:24;100623.13;;;16.46;100.00
65557;BME280;52200;53.490;14.376;2023-10-13T10:58:59;100622.53;;;16.57;100.00
65557;BME280;52200;53.490;14.376;2023-10-13T11:01:27;100609.63;;;16.58;100.00
65557;BME280;52200;53.490;14.376;2023-10-13T11:04:03;100598.28;;;16.47;100.00
65557;BME280;52200;53.490;14.376;2023-10-13T11:06:56;100588.88;;;16.47;100.00
65557;BME280;52200;53.490;14.376;2023-10-13T11:09:28;100581.00;;;16.34;100.00
65557;BME280;52200;53.490;14.376;2023-10-13T11:12:18;100577.63;;;16.50;100.00
65557;BME280;52200;53.490;14.376;2023-10-13T11:14:49;100568.03;;;16.37;100.00
65557;BME280;52200;53.490;14.376;2023-10-13T11:17:25;100572.41;;;16.51;100.00
65557;BME280;52200;53.490;14.376;2023-10-13T11:20:13;100571.97;;;16.59;100.00
65557;BME280;52200;53.490;14.376;2023-10-13T11:22:48;100565.59;;;16.66;100.00
65557;BME280;52200;53.490;14.376;2023-10-13T11:28:20;100564.69;;;16.67;100.00
65557;BME280;52200;53.490;14.376;2023-10-13T11:30:48;100555.13;;;16.55;100.00
65557;BME280;52200;53.490;14.376;2023-10-13T11:33:18;100553.47;;;16.54;100.00
65557;BME280;52200;53.490;14.376;2023-10-13T11:35:46;100552.88;;;16.65;100.00
65557;BME280;52200;53.490;14.376;2023-10-13T11:38:15;100547.19;;;16.59;100.00
65557;BME280;52200;53.490;14.376;2023-10-13T11:40:51;100533.44;;;16.44;100.00
65557;BME280;52200;53.490;14.376;2023-10-13T11:46:09;100528.31;;;16.44;100.00
65557;BME280;52200;53.490;14.376;2023-10-13T11:48:38;100527.16;;;16.50;100.00
65557;BME280;52200;53.490;14.376;2023-10-13T11:51:06;100530.63;;;16.49;100.00
65557;BME280;52200;53.490;14.376;2023-10-13T11:53:35;100513.59;;;16.32;100.00
65557;BME280;52200;53.490;14.376;2023-10-13T11:56:02;100501.44;;;16.36;100.00
65557;BME280;52200;53.490;14.376;2023-10-13T11:58:38;100503.19;;;16.35;100.00
65557;BME280;52200;53.490;14.376;2023-10-13T12:01:03;100497.06;;;16.38;100.00
65557;BME280;52200;53.490;14.376;2023-10-13T12:03:41;100492.59;;;16.41;100.00
65557;BME280;52200;53.490;14.376;2023-10-13T12:06:26;100500.63;;;16.35;100.00
65557;BME280;52200;53.490;14.376;2023-10-13T12:09:08;100496.56;;;16.47;100.00
65557;BME280;52200;53.490;14.376;2023-10-13T12:11:54;100491.78;;;16.41;100.00
65557;BME280;52200;53.490;14.376;2023-10-13T12:14:25;100484.78;;;16.59;100.00
65557;BME280;52200;53.490;14.376;2023-10-13T12:16:55;100480.44;;;16.75;100.00
65557;BME280;52200;53.490;14.376;2023-10-13T12:19:28;100475.09;;;16.64;100.00
65557;BME280;52200;53.490;14.376;2023-10-13T12:21:57;100475.44;;;16.88;100.00
65557;BME280;52200;53.490;14.376;2023-10-13T12:24:27;100480.56;;;16.88;100.00
65557;BME280;52200;53.490;14.376;2023-10-13T12:27:03;100463.84;;;16.97;100.00
65557;BME280;52200;53.490;14.376;2023-10-13T12:29:40;100468.44;;;16.92;100.00
65557;BME280;52200;53.490;14.376;2023-10-13T12:32:11;100459.66;;;16.80;100.00
65557;BME280;52200;53.490;14.376;2023-10-13T12:34:38;100463.66;;;17.00;100.00
65557;BME280;52200;53.490;14.376;2023-10-13T12:37:40;100449.78;;;17.19;100.00
65557;BME280;52200;53.490;14.376;2023-10-13T12:40:18;100443.63;;;17.36;100.00
65557;BME280;52200;53.490;14.376;2023-10-13T12:43:03;100437.19;;;17.58;100.00
65557;BME280;52200;53.490;14.376;2023-10-13T12:45:49;100439.22;;;17.52;100.00
65557;BME280;52200;53.490;14.376;2023-10-13T12:48:35;100438.53;;;17.78;100.00
65557;BME280;52200;53.490;14.376;2023-10-13T12:51:20;100429.63;;;17.83;100.00
65557;BME280;52200;53.490;14.376;2023-10-13T12:53:53;100427.81;;;18.13;100.00
65557;BME280;52200;53.490;14.376;2023-10-13T12:56:19;100427.41;;;18.19;100.00
65557;BME280;52200;53.490;14.376;2023-10-13T12:58:51;100413.81;;;17.89;100.00
65557;BME280;52200;53.490;14.376;2023-10-13T13:01:21;100407.94;;;17.87;100.00
65557;BME280;52200;53.490;14.376;2023-10-13T13:03:50;100409.25;;;18.22;100.00
65557;BME280;52200;53.490;14.376;2023-10-13T13:06:20;100397.81;;;18.13;100.00
65557;BME280;52200;53.490;14.376;2023-10-13T13:08:51;100389.75;;;18.05;100.00
65557;BME280;52200;53.490;14.376;2023-10-13T13:11:17;100393.28;;;18.17;100.00
65557;BME280;52200;53.490;14.376;2023-10-13T13:13:43;100393.69;;;18.11;100.00
65557;BME280;52200;53.490;14.376;2023-10-13T13:16:10;100373.72;;;17.87;100.00
65557;BME280;52200;53.490;14.376;2023-10-13T13:18:35;100374.72;;;17.99;100.00
65557;BME280;52200;53.490;14.376;2023-10-13T13:21:01;100369.50;;;17.86;100.00
65557;BME280;52200;53.490;14.376;2023-10-13T13:23:31;100365.06;;;17.61;100.00
65557;BME280;52200;53.490;14.376;2023-10-13T13:26:00;100359.09;;;17.75;100.00
65557;BME280;52200;53.490;14.376;2023-10-13T13:28:25;100355.19;;;17.82;100.00
65557;BME280;52200;53.490;14.376;2023-10-13T13:30:54;100348.06;;;17.72;100.00
65557;BME280;52200;53.490;14.376;2023-10-13T13:33:19;100369.19;;;17.63;100.00
65557;BME280;52200;53.490;14.376;2023-10-13T13:35:52;100345.16;;;17.64;100.00